createdAt,value
2023-03-25T00:06:09.197Z,8.70
2023-03-25T00:11:12.800Z,8.30
2023-03-25T00:16:16.915Z,7.20
2023-03-25T00:21:23.493Z,8.10
2023-03-25T00:26:53.780Z,9.20
2023-03-25T00:32:08.715Z,8.50
2023-03-25T00:37:12.309Z,7.00
2023-03-25T00:42:17.587Z,7.60
2023-03-25T00:47:23.914Z,9.80
2023-03-25T00:52:27.449Z,10.40
2023-03-25T00:58:10.515Z,9.80
2023-03-25T01:03:17.171Z,10.20
2023-03-25T01:08:25.863Z,8.40
2023-03-25T01:13:29.574Z,9.80
2023-03-25T01:18:38.128Z,10.20
2023-03-25T01:24:02.188Z,8.00
2023-03-25T01:29:05.684Z,10.80
2023-03-25T01:34:09.903Z,9.20
2023-03-25T01:39:18.878Z,10.90
2023-03-25T01:44:22.756Z,8.60
2023-03-25T01:49:33.390Z,11.60
2023-03-25T01:54:39.025Z,9.30
2023-03-25T01:59:42.467Z,10.50
2023-03-25T02:04:59.461Z,10.00
2023-03-25T02:10:08.028Z,11.90
2023-03-25T02:15:14.922Z,9.30
2023-03-25T02:20:47.052Z,11.20
2023-03-25T02:26:16.558Z,12.70
2023-03-25T02:31:54.139Z,9.60
2023-03-25T02:37:20.435Z,10.90
2023-03-25T02:42:50.101Z,10.00
2023-03-25T02:48:01.273Z,12.50
2023-03-25T02:53:23.960Z,13.70
2023-03-25T02:58:30.116Z,12.20
2023-03-25T03:03:33.678Z,10.80
2023-03-25T03:09:12.971Z,10.40
2023-03-25T03:15:08.457Z,10.60
2023-03-25T03:20:22.748Z,11.80
2023-03-25T03:25:54.788Z,14.60
2023-03-25T03:31:07.872Z,13.20
2023-03-25T03:36:25.534Z,11.60
2023-03-25T03:41:55.012Z,12.30
2023-03-25T03:47:04.974Z,14.70
2023-03-25T03:52:18.180Z,13.00
2023-03-25T03:57:32.760Z,15.20
2023-03-25T04:03:02.108Z,13.10
2023-03-25T04:08:15.086Z,15.70
2023-03-25T04:13:22.175Z,15.40
2023-03-25T04:18:28.701Z,13.30
2023-03-25T04:23:34.903Z,14.40
2023-03-25T04:29:00.199Z,13.40
2023-03-25T04:34:10.838Z,12.60
2023-03-25T04:39:44.851Z,14.80
2023-03-25T04:45:14.452Z,14.00
2023-03-25T04:50:29.202Z,13.90
2023-03-25T04:56:16.334Z,15.80
2023-03-25T05:01:31.141Z,18.70
2023-03-25T05:06:41.913Z,14.50
2023-03-25T05:11:46.525Z,13.20
2023-03-25T05:17:00.609Z,15.80
2023-03-25T05:22:04.839Z,15.40
2023-03-25T05:27:08.078Z,14.50
2023-03-25T05:32:19.095Z,16.00
2023-03-25T05:37:22.729Z,14.70
2023-03-25T05:42:26.141Z,15.40
2023-03-25T05:47:32.859Z,17.90
2023-03-25T05:52:37.213Z,16.30
2023-03-25T05:57:40.915Z,31.10
2023-03-25T06:02:47.364Z,28.60
2023-03-25T06:07:51.681Z,31.60
2023-03-25T06:12:55.255Z,18.70
2023-03-25T06:17:58.887Z,17.30
2023-03-25T06:23:06.826Z,17.80
2023-03-25T06:28:10.453Z,17.40
2023-03-25T06:33:43.289Z,16.00
2023-03-25T06:38:50.417Z,18.60
2023-03-25T06:43:56.240Z,16.60
2023-03-25T06:49:49.788Z,17.40
2023-03-25T06:54:53.387Z,17.30
2023-03-25T07:00:00.182Z,16.90
2023-03-25T07:05:05.589Z,17.10
2023-03-25T07:10:14.787Z,14.80
2023-03-25T07:15:18.353Z,16.80
2023-03-25T07:20:22.043Z,17.40
2023-03-25T07:25:25.628Z,16.40
2023-03-25T07:30:28.978Z,15.00
2023-03-25T07:35:35.170Z,14.10
2023-03-25T07:40:38.916Z,15.90
2023-03-25T07:45:55.903Z,12.00
2023-03-25T07:51:00.175Z,12.20
2023-03-25T07:56:03.959Z,12.20
2023-03-25T08:01:07.524Z,12.80
2023-03-25T08:06:11.042Z,13.20
2023-03-25T08:11:14.557Z,13.40
2023-03-25T08:16:18.176Z,14.50
2023-03-25T08:21:25.761Z,12.30
2023-03-25T08:26:29.815Z,13.00
2023-03-25T08:31:37.186Z,11.30
2023-03-25T08:36:43.411Z,9.50
2023-03-25T08:41:46.707Z,9.60
2023-03-25T08:46:50.307Z,10.50
2023-03-25T08:51:53.778Z,10.90
2023-03-25T08:56:57.183Z,10.90
2023-03-25T09:02:01.693Z,10.70
2023-03-25T09:07:12.575Z,8.90
2023-03-25T09:12:16.245Z,13.40
2023-03-25T09:17:20.280Z,8.90
2023-03-25T09:22:23.674Z,9.70
2023-03-25T09:27:27.116Z,7.20
2023-03-25T09:32:31.173Z,8.10
2023-03-25T09:37:34.569Z,9.60
2023-03-25T09:42:49.117Z,6.70
2023-03-25T09:47:56.597Z,8.20
2023-03-25T09:53:08.673Z,8.50
2023-03-25T09:58:28.287Z,7.20
2023-03-25T10:03:58.653Z,9.20
2023-03-25T10:09:34.694Z,10.70
2023-03-25T10:15:16.688Z,11.20
2023-03-25T10:20:34.666Z,10.00
2023-03-25T10:25:43.057Z,9.60
2023-03-25T10:30:52.990Z,6.20
2023-03-25T10:36:01.033Z,7.10
2023-03-25T10:41:22.861Z,6.60
2023-03-25T10:46:39.801Z,7.50
2023-03-25T10:51:44.203Z,6.80
2023-03-25T10:56:51.571Z,6.30
2023-03-25T11:01:56.743Z,6.60
2023-03-25T11:07:00.642Z,6.00
2023-03-25T11:12:06.819Z,8.00
2023-03-25T11:17:18.630Z,7.10
2023-03-25T11:22:30.695Z,7.30
2023-03-25T11:27:45.804Z,7.40
2023-03-25T11:33:20.925Z,4.30
2023-03-25T11:38:29.246Z,7.50
2023-03-25T11:43:40.119Z,5.60
2023-03-25T11:48:46.831Z,5.00
2023-03-25T11:54:00.082Z,4.60
2023-03-25T11:59:07.548Z,4.50
2023-03-25T12:04:16.441Z,5.70
2023-03-25T12:09:19.620Z,5.30
2023-03-25T12:14:56.756Z,7.00
2023-03-25T12:20:52.783Z,5.50
2023-03-25T12:26:17.275Z,8.00
2023-03-25T12:31:44.390Z,5.00
2023-03-25T12:37:15.314Z,6.80
2023-03-25T12:42:46.874Z,6.70
2023-03-25T12:47:57.196Z,15.40
2023-03-25T12:53:40.953Z,5.90
2023-03-25T13:04:58.178Z,7.00
2023-03-25T13:10:23.430Z,6.40
2023-03-25T13:15:35.460Z,9.90
2023-03-25T13:20:49.771Z,11.50
2023-03-25T13:26:12.136Z,8.90
2023-03-25T13:31:25.982Z,10.60
2023-03-25T13:36:34.612Z,13.60
2023-03-25T13:42:03.189Z,10.80
2023-03-25T13:47:37.291Z,11.90
2023-03-25T13:52:46.497Z,14.20
2023-03-25T13:58:06.981Z,10.90
2023-03-25T14:03:37.381Z,10.30
2023-03-25T14:08:52.899Z,8.20
2023-03-25T14:14:06.423Z,10.20
2023-03-25T14:19:18.088Z,11.60
2023-03-25T14:24:36.642Z,12.20
2023-03-25T14:30:01.235Z,21.30
2023-03-25T14:35:38.413Z,8.20
2023-03-25T14:46:11.329Z,37.70
2023-03-25T14:51:27.554Z,9.20
2023-03-25T14:56:44.299Z,3.10
2023-03-25T15:01:48.864Z,3.60
2023-03-25T15:06:53.444Z,2.40
2023-03-25T15:12:02.551Z,1.60
2023-03-25T15:17:11.090Z,4.80
2023-03-25T15:22:23.330Z,3.10
2023-03-25T15:27:56.003Z,4.10
2023-03-25T15:33:40.631Z,3.10
2023-03-25T15:38:54.300Z,2.50
2023-03-25T15:44:27.749Z,2.30
2023-03-25T15:50:06.574Z,3.00
2023-03-25T15:55:17.762Z,2.60
2023-03-25T16:00:27.894Z,5.10
2023-03-25T16:05:34.506Z,3.10
2023-03-25T16:10:39.788Z,4.50
2023-03-25T16:15:45.148Z,3.00
2023-03-25T16:20:59.564Z,4.60
2023-03-25T16:26:04.980Z,5.00
2023-03-25T16:31:42.988Z,4.10
2023-03-25T16:36:55.686Z,5.20
2023-03-25T16:42:37.370Z,6.40
2023-03-25T16:48:09.864Z,6.30
2023-03-25T16:53:16.212Z,4.90
2023-03-25T16:58:44.212Z,6.20
2023-03-25T17:04:01.170Z,5.90
2023-03-25T17:09:46.664Z,5.80
2023-03-25T17:15:07.081Z,5.60
2023-03-25T17:20:19.673Z,6.30
2023-03-25T17:25:35.023Z,6.90
2023-03-25T17:30:45.293Z,9.50
2023-03-25T17:35:55.173Z,10.70
2023-03-25T17:41:17.937Z,8.80
2023-03-25T17:46:52.820Z,12.40
2023-03-25T17:51:58.339Z,10.80
2023-03-25T17:57:09.377Z,11.30
2023-03-25T18:02:17.437Z,9.70
2023-03-25T18:07:21.551Z,10.60
2023-03-25T18:12:28.889Z,10.80
2023-03-25T18:17:55.594Z,12.10
2023-03-25T18:23:02.161Z,15.70
2023-03-25T18:28:11.485Z,12.80
2023-03-25T18:33:18.531Z,13.60
2023-03-25T18:38:24.649Z,10.60
2023-03-25T18:43:28.408Z,9.20
2023-03-25T18:48:37.756Z,10.60
2023-03-25T18:54:01.687Z,7.30
2023-03-25T18:59:05.440Z,6.20
2023-03-25T19:04:32.094Z,9.30
2023-03-25T19:09:41.777Z,8.50
2023-03-25T19:14:45.522Z,9.60
2023-03-25T19:19:49.730Z,5.00
2023-03-25T19:25:16.028Z,3.50
2023-03-25T19:30:21.850Z,3.80
2023-03-25T19:35:43.003Z,5.40
2023-03-25T19:40:52.171Z,5.00
2023-03-25T19:46:19.251Z,4.00
2023-03-25T19:51:22.864Z,5.10
2023-03-25T19:56:26.591Z,6.90
2023-03-25T20:02:10.336Z,5.30
2023-03-25T20:07:26.480Z,6.20
2023-03-25T20:12:33.328Z,7.60
2023-03-25T20:17:37.713Z,6.70
2023-03-25T20:22:44.385Z,6.70
2023-03-25T20:28:08.456Z,7.60
2023-03-25T20:33:12.335Z,7.60
2023-03-25T20:38:50.491Z,7.70
2023-03-25T20:44:02.270Z,8.40
2023-03-25T20:49:14.233Z,8.80
2023-03-25T20:54:19.834Z,12.90
2023-03-25T20:59:48.758Z,9.40
2023-03-25T21:05:01.988Z,8.50
2023-03-25T21:10:31.315Z,6.20
2023-03-25T21:15:58.880Z,7.40
2023-03-25T21:21:24.324Z,11.40
2023-03-25T21:26:39.210Z,11.50
2023-03-25T21:32:25.145Z,11.30
2023-03-25T21:37:59.333Z,7.10
2023-03-25T21:43:04.968Z,8.80
2023-03-25T21:48:32.511Z,12.80
2023-03-25T21:53:45.156Z,12.80
2023-03-25T21:59:09.205Z,12.30
2023-03-25T22:04:15.942Z,13.10
2023-03-25T22:09:19.417Z,13.80
2023-03-25T22:14:23.569Z,15.50
2023-03-25T22:19:27.340Z,17.60
2023-03-25T22:25:04.823Z,15.30
2023-03-25T22:30:15.812Z,14.50
2023-03-25T22:35:21.803Z,14.00
2023-03-25T22:40:28.874Z,15.40
2023-03-25T22:45:34.718Z,13.70
2023-03-25T22:50:44.616Z,18.60
2023-03-25T22:56:33.976Z,16.80
2023-03-25T23:01:48.006Z,16.30
2023-03-25T23:07:04.768Z,14.30
2023-03-25T23:12:34.262Z,14.10
2023-03-25T23:18:11.514Z,14.20
2023-03-25T23:23:22.480Z,13.20
2023-03-25T23:29:03.222Z,14.40
2023-03-25T23:34:12.616Z,14.10
2023-03-25T23:39:22.649Z,13.40
2023-03-25T23:45:06.811Z,12.80
2023-03-25T23:50:18.619Z,13.30
2023-03-25T23:55:37.662Z,12.50
